createdAt,value
2022-08-08T00:00:59.747Z,92.30
2022-08-08T00:03:31.999Z,93.00
2022-08-08T00:06:15.028Z,92.10
2022-08-08T00:09:18.197Z,92.40
2022-08-08T00:12:07.391Z,92.60
2022-08-08T00:14:58.711Z,91.10
2022-08-08T00:18:03.579Z,91.30
2022-08-08T00:21:01.414Z,93.40
2022-08-08T00:23:56.747Z,92.50
2022-08-08T00:26:49.292Z,93.50
2022-08-08T00:29:53.608Z,92.30
2022-08-08T00:32:36.085Z,92.30
2022-08-08T00:35:23.618Z,92.20
2022-08-08T00:38:01.737Z,92.10
2022-08-08T00:43:55.916Z,95.10
2022-08-08T00:46:56.856Z,92.50
2022-08-08T00:50:03.094Z,98.00
2022-08-08T00:52:59.724Z,94.00
2022-08-08T00:55:53.061Z,96.00
2022-08-08T00:58:40.101Z,96.40
2022-08-08T01:01:37.923Z,94.40
2022-08-08T01:04:33.789Z,94.50
2022-08-08T01:07:55.441Z,96.10
2022-08-08T01:10:52.343Z,95.30
2022-08-08T01:13:44.427Z,95.20
2022-08-08T01:16:21.776Z,95.40
2022-08-08T01:19:52.252Z,97.90
2022-08-08T01:22:37.832Z,98.20
2022-08-08T01:25:40.148Z,99.60
2022-08-08T01:28:18.116Z,96.10
2022-08-08T01:32:13.677Z,99.90
2022-08-08T01:34:59.369Z,95.70
2022-08-08T01:37:57.486Z,98.40
2022-08-08T01:40:28.304Z,99.90
2022-08-08T01:43:07.078Z,96.60
2022-08-08T01:48:35.551Z,98.00
2022-08-08T01:55:17.508Z,99.90
2022-08-08T01:58:04.007Z,98.50
2022-08-08T02:03:49.258Z,98.80
2022-08-08T02:06:57.196Z,99.90
2022-08-08T02:10:04.357Z,99.50
2022-08-08T02:12:48.963Z,99.70
2022-08-08T02:15:48.120Z,99.70
2022-08-08T02:18:43.991Z,99.90
2022-08-08T02:21:48.193Z,99.90
2022-08-08T02:24:27.742Z,99.90
2022-08-08T02:27:07.422Z,99.90
2022-08-08T02:30:04.341Z,99.90
2022-08-08T02:32:52.650Z,99.90
2022-08-08T02:35:28.316Z,99.90
2022-08-08T02:38:32.230Z,99.90
2022-08-08T02:41:58.813Z,99.90
2022-08-08T02:44:38.351Z,99.90
2022-08-08T02:50:41.554Z,99.90
2022-08-08T02:53:57.785Z,99.90
2022-08-08T02:56:58.384Z,99.90
2022-08-08T03:02:50.197Z,99.90
2022-08-08T03:05:45.384Z,99.90
2022-08-08T03:08:34.468Z,99.90
2022-08-08T03:11:13.778Z,99.90
2022-08-08T03:16:01.581Z,99.90
2022-08-08T03:17:39.508Z,99.90
2022-08-08T03:22:57.211Z,99.90
2022-08-08T03:25:35.940Z,99.90
2022-08-08T03:28:24.552Z,99.90
2022-08-08T03:31:13.564Z,99.90
2022-08-08T03:33:54.995Z,99.90
2022-08-08T03:36:28.061Z,99.90
2022-08-08T03:39:07.617Z,99.90
2022-08-08T03:42:28.316Z,99.90
2022-08-08T03:44:38.371Z,99.90
2022-08-08T03:47:19.182Z,99.90
2022-08-08T03:50:00.973Z,99.90
2022-08-08T03:52:31.783Z,99.90
2022-08-08T03:55:10.681Z,99.90
2022-08-08T04:06:09.559Z,99.90
2022-08-08T04:08:37.965Z,99.90
2022-08-08T04:11:11.102Z,99.90
2022-08-08T04:19:23.832Z,99.90
2022-08-08T04:26:58.814Z,99.90
2022-08-08T04:29:27.313Z,99.90
2022-08-08T04:31:58.394Z,99.90
2022-08-08T04:34:32.443Z,99.90
2022-08-08T04:37:14.424Z,99.90
2022-08-08T04:45:00.747Z,99.90
2022-08-08T04:47:27.692Z,99.90
2022-08-08T04:50:01.067Z,99.90
2022-08-08T04:52:34.373Z,99.90
2022-08-08T04:55:04.396Z,99.90
2022-08-08T04:57:34.355Z,99.90
2022-08-08T05:07:38.113Z,99.90
2022-08-08T05:13:00.292Z,99.90
2022-08-08T05:18:16.327Z,99.90
2022-08-08T05:20:50.486Z,99.90
2022-08-08T05:23:20.478Z,99.90
2022-08-08T05:28:56.377Z,99.90
2022-08-08T05:36:25.477Z,99.80
2022-08-08T05:38:57.268Z,99.90
2022-08-08T05:41:26.120Z,99.90
2022-08-08T05:44:04.920Z,99.90
2022-08-08T05:46:33.226Z,99.80
2022-08-08T05:49:01.465Z,98.80
2022-08-08T05:51:48.354Z,99.50
2022-08-08T05:54:26.839Z,99.00
2022-08-08T05:57:07.317Z,99.80
2022-08-08T06:00:00.866Z,99.70
2022-08-08T06:02:48.077Z,99.60
2022-08-08T06:05:35.716Z,99.80
2022-08-08T06:08:09.746Z,99.40
2022-08-08T06:10:49.613Z,98.00
2022-08-08T06:15:53.966Z,98.20
2022-08-08T06:18:25.383Z,97.10
2022-08-08T06:20:57.123Z,97.60
2022-08-08T06:23:49.030Z,97.90
2022-08-08T06:26:38.577Z,97.80
2022-08-08T06:29:02.673Z,98.10
2022-08-08T06:31:52.797Z,97.70
2022-08-08T06:34:42.469Z,97.90
2022-08-08T06:37:25.035Z,97.90
2022-08-08T06:39:57.592Z,98.20
2022-08-08T06:42:30.517Z,94.70
2022-08-08T06:44:57.459Z,97.60
2022-08-08T06:50:04.175Z,95.60
2022-08-08T06:52:32.422Z,96.90
2022-08-08T06:55:01.726Z,94.40
2022-08-08T06:57:29.405Z,95.20
2022-08-08T07:00:16.827Z,94.50
2022-08-08T07:03:00.623Z,94.40
2022-08-08T07:05:40.233Z,93.10
2022-08-08T07:08:18.411Z,94.10
2022-08-08T07:10:51.033Z,92.30
2022-08-08T07:13:20.048Z,93.20
2022-08-08T07:16:10.040Z,92.60
2022-08-08T07:19:12.586Z,91.30
2022-08-08T07:22:12.018Z,91.10
2022-08-08T07:27:16.764Z,86.30
2022-08-08T07:30:01.744Z,87.10
2022-08-08T07:32:34.023Z,80.50
2022-08-08T07:35:06.398Z,78.60
2022-08-08T07:37:55.882Z,77.50
2022-08-08T07:40:29.256Z,75.90
2022-08-08T07:43:01.239Z,74.20
2022-08-08T07:45:34.922Z,72.60
2022-08-08T07:48:15.092Z,72.10
2022-08-08T07:50:44.427Z,70.00
2022-08-08T07:53:52.489Z,69.70
2022-08-08T07:56:04.572Z,69.10
2022-08-08T07:58:32.266Z,68.20
2022-08-08T08:01:04.444Z,68.10
2022-08-08T08:03:51.388Z,66.70
2022-08-08T08:06:20.737Z,65.30
2022-08-08T08:09:09.152Z,65.50
2022-08-08T08:11:51.359Z,64.90
2022-08-08T08:14:29.675Z,64.60
2022-08-08T08:19:31.988Z,63.60
2022-08-08T08:24:46.588Z,63.20
2022-08-08T08:42:31.318Z,61.50
2022-08-08T08:45:20.813Z,60.50
2022-08-08T08:47:54.189Z,60.80
2022-08-08T08:50:32.746Z,61.20
2022-08-08T08:53:54.722Z,57.70
2022-08-08T08:55:56.110Z,58.30
2022-08-08T08:58:38.086Z,60.50
2022-08-08T09:01:09.870Z,60.80
2022-08-08T09:03:46.094Z,59.30
2022-08-08T09:06:28.853Z,60.20
2022-08-08T09:09:35.267Z,60.80
2022-08-08T09:12:09.698Z,59.30
2022-08-08T09:14:42.401Z,59.30
2022-08-08T09:17:17.915Z,59.30
2022-08-08T09:21:57.977Z,60.60
2022-08-08T09:22:37.872Z,60.80
2022-08-08T09:25:07.585Z,61.50
2022-08-08T09:27:55.457Z,61.20
2022-08-08T09:30:26.865Z,60.30
2022-08-08T09:33:11.970Z,59.20
2022-08-08T09:35:50.522Z,58.30
2022-08-08T09:38:54.072Z,58.10
2022-08-08T09:41:54.843Z,61.30
2022-08-08T09:44:34.191Z,60.90
2022-08-08T09:47:26.762Z,61.00
2022-08-08T09:50:01.407Z,62.20
2022-08-08T09:52:53.880Z,61.10
2022-08-08T09:55:51.561Z,60.40
2022-08-08T09:58:25.644Z,60.50
2022-08-08T10:00:59.201Z,60.70
2022-08-08T10:03:31.548Z,60.90
2022-08-08T10:05:59.624Z,59.50
2022-08-08T10:08:30.478Z,61.10
2022-08-08T10:11:01.912Z,59.50
2022-08-08T10:13:42.147Z,59.00
2022-08-08T10:16:10.028Z,57.30
2022-08-08T10:18:39.611Z,58.30
2022-08-08T10:21:25.292Z,58.30
2022-08-08T10:24:03.201Z,60.10
2022-08-08T10:26:57.091Z,60.40
2022-08-08T10:29:56.594Z,61.30
2022-08-08T10:32:32.581Z,58.90
2022-08-08T10:36:01.871Z,60.10
2022-08-08T10:38:07.863Z,56.90
2022-08-08T10:40:38.186Z,55.80
2022-08-08T10:43:06.531Z,54.80
2022-08-08T10:45:57.111Z,53.70
2022-08-08T10:48:37.375Z,54.10
2022-08-08T10:51:25.923Z,51.90
2022-08-08T10:54:00.022Z,53.30
2022-08-08T10:56:36.914Z,53.90
2022-08-08T10:59:14.114Z,52.60
2022-08-08T11:01:54.485Z,50.40
2022-08-08T11:04:29.582Z,52.00
2022-08-08T11:07:06.824Z,51.00
2022-08-08T11:09:34.374Z,52.10
2022-08-08T11:12:12.705Z,51.50
2022-08-08T11:15:00.099Z,51.60
2022-08-08T11:18:00.183Z,49.30
2022-08-08T11:20:27.354Z,49.70
2022-08-08T11:22:55.066Z,50.80
2022-08-08T11:25:52.304Z,49.00
2022-08-08T11:28:23.184Z,47.90
2022-08-08T11:30:54.759Z,49.30
2022-08-08T11:33:51.207Z,49.90
2022-08-08T11:36:15.180Z,49.60
2022-08-08T11:38:54.736Z,49.40
2022-08-08T11:41:27.935Z,46.90
2022-08-08T11:44:00.476Z,47.60
2022-08-08T11:46:31.344Z,48.30
2022-08-08T11:49:01.273Z,47.30
2022-08-08T11:51:40.321Z,48.30
2022-08-08T11:57:14.346Z,49.30
2022-08-08T12:00:07.374Z,49.60
2022-08-08T12:02:55.185Z,49.10
2022-08-08T12:05:36.215Z,49.00
2022-08-08T12:08:04.178Z,46.80
2022-08-08T12:10:32.269Z,47.00
2022-08-08T12:13:12.219Z,47.50
2022-08-08T12:15:49.181Z,49.60
2022-08-08T12:18:21.614Z,49.40
2022-08-08T12:20:54.213Z,48.40
2022-08-08T12:23:43.840Z,47.90
2022-08-08T12:26:35.903Z,48.60
2022-08-08T12:29:36.563Z,49.10
2022-08-08T12:32:19.788Z,48.50
2022-08-08T12:34:51.637Z,48.00
2022-08-08T12:37:40.240Z,49.10
2022-08-08T12:40:23.830Z,49.70
2022-08-08T12:42:52.879Z,48.50
2022-08-08T12:45:58.543Z,48.10
2022-08-08T12:48:38.150Z,48.50
2022-08-08T12:51:11.228Z,50.20
2022-08-08T12:53:57.568Z,49.40
2022-08-08T12:56:37.318Z,50.80
2022-08-08T12:59:18.145Z,48.40
2022-08-08T13:02:20.995Z,47.90
2022-08-08T13:04:51.351Z,49.80
2022-08-08T13:08:03.558Z,48.00
2022-08-08T13:10:11.178Z,47.50
2022-08-08T13:12:47.008Z,48.60
2022-08-08T13:15:17.121Z,48.90
2022-08-08T13:18:08.559Z,46.80
2022-08-08T13:23:31.267Z,46.80
2022-08-08T13:25:51.669Z,46.60
2022-08-08T13:28:32.362Z,47.00
2022-08-08T13:31:01.904Z,46.10
2022-08-08T13:33:42.153Z,46.10
2022-08-08T13:36:11.140Z,46.40
2022-08-08T13:38:39.965Z,46.70
2022-08-08T13:41:17.015Z,48.30
2022-08-08T13:43:49.969Z,48.20
2022-08-08T13:46:27.509Z,47.60
2022-08-08T13:49:12.157Z,48.10
2022-08-08T13:51:58.133Z,46.90
2022-08-08T13:54:31.185Z,46.60
2022-08-08T13:57:02.556Z,48.60
2022-08-08T13:59:32.814Z,46.90
2022-08-08T14:02:07.469Z,47.30
2022-08-08T14:04:35.467Z,48.10
2022-08-08T14:07:04.699Z,48.00
2022-08-08T14:10:05.289Z,48.00
2022-08-08T14:12:30.137Z,48.90
2022-08-08T14:14:57.589Z,47.60
2022-08-08T14:17:58.410Z,47.70
2022-08-08T14:20:14.811Z,46.70
2022-08-08T14:23:06.069Z,47.30
2022-08-08T14:26:19.837Z,46.00
2022-08-08T14:28:53.758Z,47.50
2022-08-08T14:31:23.914Z,47.90
2022-08-08T14:34:23.016Z,47.70
2022-08-08T14:36:53.492Z,47.70
2022-08-08T14:39:24.642Z,46.40
2022-08-08T14:42:03.459Z,46.60
2022-08-08T14:44:35.455Z,47.00
2022-08-08T14:50:05.959Z,46.60
2022-08-08T14:52:46.829Z,48.10
2022-08-08T14:55:14.523Z,47.70
2022-08-08T14:58:06.206Z,48.90
2022-08-08T15:00:32.441Z,48.30
2022-08-08T15:03:14.479Z,48.80
2022-08-08T15:08:35.107Z,47.90
2022-08-08T15:11:07.284Z,47.70
2022-08-08T15:13:41.028Z,48.00
2022-08-08T15:16:24.196Z,47.80
2022-08-08T15:18:51.779Z,48.00
2022-08-08T15:21:20.879Z,47.40
2022-08-08T15:23:51.353Z,47.40
2022-08-08T15:26:20.370Z,48.00
2022-08-08T15:28:53.146Z,48.50
2022-08-08T15:31:25.852Z,48.10
2022-08-08T15:34:28.855Z,49.50
2022-08-08T15:39:23.104Z,50.20
2022-08-08T15:41:51.276Z,51.40
2022-08-08T15:49:20.839Z,49.00
2022-08-08T15:51:49.968Z,48.60
2022-08-08T15:57:07.572Z,48.10
2022-08-08T16:00:26.209Z,49.40
2022-08-08T16:02:31.239Z,49.80
2022-08-08T16:05:00.147Z,50.00
2022-08-08T16:07:39.437Z,49.50
2022-08-08T16:13:07.843Z,50.30
2022-08-08T16:13:20.768Z,51.00
2022-08-08T16:15:58.597Z,51.10
2022-08-08T16:18:28.104Z,50.60
2022-08-08T16:21:00.584Z,50.60
2022-08-08T16:23:31.407Z,51.20
2022-08-08T16:31:07.492Z,50.80
2022-08-08T16:33:38.773Z,51.30
2022-08-08T16:36:09.933Z,52.10
2022-08-08T16:38:45.077Z,50.90
2022-08-08T16:43:50.845Z,53.00
2022-08-08T16:46:37.652Z,52.60
2022-08-08T16:49:09.582Z,53.40
2022-08-08T16:55:03.235Z,54.10
2022-08-08T16:55:06.677Z,54.30
2022-08-08T16:58:12.882Z,54.40
2022-08-08T17:00:08.938Z,54.60
2022-08-08T17:02:39.714Z,55.00
2022-08-08T17:05:08.600Z,55.00
2022-08-08T17:07:37.692Z,54.60
2022-08-08T17:10:09.706Z,54.30
2022-08-08T17:12:37.516Z,55.00
2022-08-08T17:15:17.672Z,55.30
2022-08-08T17:18:03.183Z,55.50
2022-08-08T17:20:39.731Z,55.50
2022-08-08T17:23:18.028Z,56.60
2022-08-08T17:25:55.579Z,57.00
2022-08-08T17:28:34.227Z,56.80
2022-08-08T17:31:43.114Z,58.10
2022-08-08T17:34:52.769Z,57.90
2022-08-08T17:36:55.094Z,59.10
2022-08-08T17:40:02.924Z,58.70
2022-08-08T17:42:13.666Z,59.20
2022-08-08T17:47:16.330Z,60.10
2022-08-08T17:49:52.622Z,60.10
2022-08-08T17:52:23.313Z,60.00
2022-08-08T17:54:52.029Z,60.40
2022-08-08T17:57:23.971Z,60.40
2022-08-08T18:04:58.704Z,62.00
2022-08-08T18:08:02.765Z,62.20
2022-08-08T18:12:45.851Z,63.40
2022-08-08T18:15:14.290Z,63.20
2022-08-08T18:18:09.250Z,63.90
2022-08-08T18:23:14.665Z,64.80
2022-08-08T18:25:45.305Z,65.40
2022-08-08T18:28:13.580Z,66.00
2022-08-08T18:30:42.666Z,65.90
2022-08-08T18:36:04.661Z,66.60
2022-08-08T18:38:34.142Z,67.10
2022-08-08T18:41:03.066Z,67.10
2022-08-08T18:43:37.762Z,67.60
2022-08-08T18:51:53.734Z,68.40
2022-08-08T18:54:22.672Z,68.60
2022-08-08T18:56:57.374Z,68.70
2022-08-08T18:59:24.777Z,68.70
2022-08-08T19:02:25.541Z,68.30
2022-08-08T19:07:23.147Z,69.50
2022-08-08T19:12:39.573Z,69.90
2022-08-08T19:15:11.943Z,70.00
2022-08-08T19:20:29.931Z,70.60
2022-08-08T19:26:01.534Z,70.90
2022-08-08T19:28:17.847Z,71.30
2022-08-08T19:33:52.326Z,72.10
2022-08-08T19:36:27.713Z,72.00
2022-08-08T19:38:56.395Z,72.20
2022-08-08T19:41:33.633Z,71.80
2022-08-08T19:44:04.073Z,70.40
2022-08-08T19:46:39.668Z,70.40
2022-08-08T19:49:06.624Z,70.30
2022-08-08T19:51:41.572Z,70.20
2022-08-08T19:54:11.581Z,70.10
2022-08-08T19:56:40.448Z,70.30
2022-08-08T19:59:12.908Z,70.00
2022-08-08T20:02:01.810Z,70.10
2022-08-08T20:04:30.896Z,70.30
2022-08-08T20:06:57.962Z,70.50
2022-08-08T20:09:32.722Z,71.30
2022-08-08T20:12:11.220Z,71.90
2022-08-08T20:14:42.043Z,72.00
2022-08-08T20:17:26.794Z,71.70
2022-08-08T20:19:55.219Z,71.80
2022-08-08T20:22:30.697Z,72.10
2022-08-08T20:25:00.233Z,72.00
2022-08-08T20:27:27.501Z,72.10
2022-08-08T20:30:52.781Z,72.40
2022-08-08T20:32:59.327Z,72.60
2022-08-08T20:35:57.058Z,72.90
2022-08-08T20:40:47.516Z,73.10
2022-08-08T20:43:43.115Z,73.90
2022-08-08T20:46:05.129Z,73.50
2022-08-08T20:51:05.594Z,74.40
2022-08-08T20:59:08.851Z,74.30
2022-08-08T21:01:44.184Z,74.60
2022-08-08T21:04:27.353Z,75.40
2022-08-08T21:06:55.552Z,75.50
2022-08-08T21:09:22.962Z,75.70
2022-08-08T21:11:53.656Z,76.10
2022-08-08T21:14:34.430Z,76.20
2022-08-08T21:17:06.030Z,76.10
2022-08-08T21:19:45.522Z,76.30
2022-08-08T21:22:14.085Z,76.80
2022-08-08T21:24:41.814Z,76.90
2022-08-08T21:28:05.973Z,77.10
2022-08-08T21:30:16.466Z,76.80
2022-08-08T21:36:13.857Z,77.50
2022-08-08T21:40:54.755Z,77.60
2022-08-08T21:43:25.537Z,78.40
2022-08-08T21:54:17.693Z,80.10
2022-08-08T21:54:23.065Z,79.40
2022-08-08T21:56:59.579Z,79.60
2022-08-08T21:59:43.924Z,79.70
2022-08-08T22:04:43.269Z,79.50
2022-08-08T22:07:10.577Z,79.50
2022-08-08T22:09:40.954Z,79.60
2022-08-08T22:12:17.126Z,79.70
2022-08-08T22:14:47.401Z,79.60
2022-08-08T22:17:18.440Z,79.60
2022-08-08T22:20:12.554Z,79.50
2022-08-08T22:25:17.798Z,79.60
2022-08-08T22:28:02.489Z,80.00
2022-08-08T22:30:32.142Z,80.70
2022-08-08T22:33:01.311Z,80.80
2022-08-08T22:36:04.386Z,81.10
2022-08-08T22:38:17.449Z,81.50
2022-08-08T22:40:45.586Z,81.40
2022-08-08T22:43:17.115Z,81.90
2022-08-08T22:45:46.726Z,82.10
2022-08-08T22:48:21.620Z,81.80
2022-08-08T22:54:31.732Z,82.60
2022-08-08T22:56:03.824Z,83.50
2022-08-08T22:58:33.046Z,84.40
2022-08-08T23:01:30.582Z,84.00
2022-08-08T23:03:55.556Z,84.70
2022-08-08T23:06:26.952Z,84.60
2022-08-08T23:08:59.057Z,84.20
2022-08-08T23:11:30.808Z,84.10
2022-08-08T23:14:21.172Z,83.90
2022-08-08T23:16:57.451Z,83.70
2022-08-08T23:19:25.379Z,84.50
2022-08-08T23:21:52.515Z,85.30
2022-08-08T23:24:22.208Z,85.40
2022-08-08T23:29:25.562Z,86.20
2022-08-08T23:31:55.437Z,85.60
2022-08-08T23:34:22.420Z,86.20
2022-08-08T23:36:56.941Z,86.70
2022-08-08T23:39:26.601Z,86.80
2022-08-08T23:42:01.730Z,87.00
2022-08-08T23:44:28.855Z,87.30
2022-08-08T23:50:02.919Z,88.00
2022-08-08T23:52:32.815Z,88.30
2022-08-08T23:55:14.162Z,88.60
2022-08-08T23:57:52.955Z,88.70
